Time;durP1;ratioP1;P1;durP2;ratioP2;P2;SDS_P1;SDS_P2;PMS_P1;PMS_P2;Temp;Humidity;BMP_temperature;BMP_pressure;BME280_temperature;BME280_humidity;BME280_pressure;Samples;Min_cycle;Max_cycle;Signal;HPM_P1;HPM_P2
2020/12/15 00:00:09;;;;;;;16.30;9.93;;;;;;;5.20;73.66;100853.22;692676;28;22373;-65
2020/12/15 00:00:30;;;;;;;15.18;10.15;;;;;;;5.21;73.63;100857.59;692085;28;43873;-65
2020/12/15 00:00:51;;;;;;;14.90;10.25;;;;;;;5.20;73.67;100854.09;691649;28;46295;-65
2020/12/15 00:01:13;;;;;;;15.45;10.13;;;;;;;5.19;73.80;100860.41;692268;28;22454;-65
2020/12/15 00:01:34;;;;;;;14.20;9.90;;;;;;;5.19;73.59;100854.22;692428;28;8468;-65
2020/12/15 00:01:58;;;;;;;14.07;9.23;;;;;;;5.19;73.94;100851.56;691066;28;44501;-65
2020/12/15 00:02:19;;;;;;;16.55;10.05;;;;;;;5.22;73.72;100851.28;690363;28;67669;-64
2020/12/15 00:02:40;;;;;;;15.85;9.90;;;;;;;5.21;73.60;100850.41;693095;28;927;-64
2020/12/15 00:03:01;;;;;;;17.98;10.45;;;;;;;5.22;73.51;100854.78;691485;28;46484;-65
2020/12/15 00:03:23;;;;;;;16.40;10.65;;;;;;;5.19;73.77;100852.38;692936;28;1178;-63
2020/12/15 00:03:45;;;;;;;16.08;10.15;;;;;;;5.19;73.72;100851.56;691963;28;47418;-65
2020/12/15 00:04:06;;;;;;;14.27;9.65;;;;;;;5.17;73.68;100859.72;692828;28;7310;-65
2020/12/15 00:04:27;;;;;;;16.08;10.57;;;;;;;5.19;73.68;100847.03;692541;28;19107;-64
2020/12/15 00:04:50;;;;;;;17.20;10.43;;;;;;;5.20;73.56;100848.72;691961;28;46289;-65
2020/12/15 00:05:12;;;;;;;15.40;9.85;;;;;;;5.21;73.57;100850.41;691985;28;22475;-65
2020/12/15 00:05:33;;;;;;;17.88;10.50;;;;;;;5.20;73.67;100842.50;692572;28;23033;-64
2020/12/15 00:05:54;;;;;;;18.90;10.40;;;;;;;5.20;73.75;100845.19;692732;28;22382;-64
2020/12/15 00:06:16;;;;;;;17.55;9.77;;;;;;;5.21;73.62;100850.41;690164;28;47321;-64
2020/12/15 00:06:37;;;;;;;15.45;10.25;;;;;;;5.21;73.64;100853.09;691014;28;22536;-64
2020/12/15 00:06:59;;;;;;;13.93;9.68;;;;;;;5.21;73.78;100847.72;690211;28;46399;-65
2020/12/15 00:07:20;;;;;;;14.95;9.70;;;;;;;5.20;73.58;100847.88;691124;28;22380;-65
2020/12/15 00:07:41;;;;;;;15.93;10.43;;;;;;;5.19;73.47;100846.19;690318;28;44398;-65
2020/12/15 00:08:03;;;;;;;16.88;10.73;;;;;;;5.22;73.74;100848.59;691241;28;22362;-64
2020/12/15 00:08:24;;;;;;;15.82;10.13;;;;;;;5.21;73.55;100836.19;692753;28;23428;-65
2020/12/15 00:08:46;;;;;;;20.35;10.50;;;;;;;5.20;73.59;100846.06;691908;28;46278;-64
2020/12/15 00:09:07;;;;;;;18.98;10.55;;;;;;;5.21;73.70;100841.53;692348;28;23365;-65
2020/12/15 00:09:28;;;;;;;16.70;10.30;;;;;;;5.23;73.55;100842.22;692337;28;21580;-65
2020/12/15 00:09:50;;;;;;;16.48;9.93;;;;;;;5.22;73.61;100838.72;691614;28;44411;-65
2020/12/15 00:10:11;;;;;;;14.82;10.13;;;;;;;5.23;73.44;100850.25;692571;28;22150;-62
2020/12/15 00:10:32;;;;;;;15.00;10.00;;;;;;;5.21;73.60;100842.38;691991;28;46479;-64
2020/12/15 00:10:54;;;;;;;14.70;9.68;;;;;;;5.23;73.33;100844.91;692727;28;21360;-65
2020/12/15 00:11:19;;;;;;;17.70;10.32;;;;;;;5.22;73.29;100843.25;694692;28;21309;-65
2020/12/15 00:11:40;;;;;;;16.20;10.20;;;;;;;5.23;73.38;100842.22;691600;28;115148;-65
2020/12/15 00:12:01;;;;;;;15.63;10.52;;;;;;;5.22;73.42;100840.56;693631;28;46364;-65
2020/12/15 00:12:23;;;;;;;15.40;10.38;;;;;;;5.21;73.29;100838.84;695258;28;20845;-64
2020/12/15 00:12:44;;;;;;;15.68;10.20;;;;;;;5.19;73.53;100840.84;695290;28;23464;-65
2020/12/15 00:13:06;;;;;;;15.43;10.05;;;;;;;5.21;73.62;100845.06;693524;28;46342;-65
2020/12/15 00:13:27;;;;;;;16.10;9.93;;;;;;;5.20;73.61;100845.19;692952;28;20525;-65
2020/12/15 00:13:50;;;;;;;14.18;9.80;;;;;;;5.20;73.68;100843.38;692371;28;16019;-65
2020/12/15 00:14:12;;;;;;;14.95;9.75;;;;;;;5.16;73.43;100841.13;692807;28;18196;-65
2020/12/15 00:14:33;;;;;;;14.85;9.63;;;;;;;5.19;73.31;100843.53;691629;28;45284;-65
2020/12/15 00:14:55;;;;;;;14.10;9.60;;;;;;;5.17;73.35;100840.13;692355;28;21665;-65
2020/12/15 00:15:16;;;;;;;14.20;9.95;;;;;;;5.20;73.41;100846.06;691915;28;23481;-65
2020/12/15 00:15:37;;;;;;;17.15;10.05;;;;;;;5.20;73.26;100842.50;691677;28;46078;-65
2020/12/15 00:15:59;;;;;;;18.17;10.13;;;;;;;5.20;73.40;100837.16;692330;28;23273;-65
2020/12/15 00:16:20;;;;;;;19.08;10.32;;;;;;;5.21;73.29;100849.56;691294;28;44551;-65
2020/12/15 00:16:42;;;;;;;16.27;9.98;;;;;;;5.17;73.32;100840.13;692598;28;22417;-65
2020/12/15 00:17:04;;;;;;;14.80;10.27;;;;;;;5.21;73.18;100839.69;692415;28;21569;-65
2020/12/15 00:17:25;;;;;;;15.93;10.43;;;;;;;5.21;73.15;100850.41;691359;28;44154;-65
2020/12/15 00:17:47;;;;;;;16.85;10.48;;;;;;;5.20;73.17;100839.84;692921;28;865;-65
2020/12/15 00:18:09;;;;;;;17.05;10.15;;;;;;;5.22;73.09;100851.28;692689;28;15309;-65
2020/12/15 00:18:30;;;;;;;15.77;10.27;;;;;;;5.19;72.89;100846.19;692741;28;21552;-65
2020/12/15 00:18:51;;;;;;;15.75;10.00;;;;;;;5.20;72.89;100845.19;692137;28;42532;-65
2020/12/15 00:19:13;;;;;;;15.68;9.90;;;;;;;5.20;72.70;100846.06;693329;28;999;-65
2020/12/15 00:19:34;;;;;;;16.10;9.88;;;;;;;5.18;72.89;100845.31;691888;28;37187;-65
2020/12/15 00:19:55;;;;;;;15.68;9.88;;;;;;;5.19;73.01;100843.53;692782;28;8990;-65
2020/12/15 00:20:17;;;;;;;14.07;9.68;;;;;;;5.19;72.90;100846.19;692535;28;14850;-65
2020/12/15 00:20:40;;;;;;;15.50;10.02;;;;;;;5.18;72.94;100847.16;692305;28;35327;-65
2020/12/15 00:21:01;;;;;;;13.88;9.95;;;;;;;5.14;73.03;100843.06;691444;28;45710;-65
2020/12/15 00:21:24;;;;;;;14.30;9.40;;;;;;;5.14;73.20;100846.59;691552;28;46214;-65
2020/12/15 00:21:45;;;;;;;15.65;9.93;;;;;;;5.17;72.91;100845.47;691640;28;47805;-64
2020/12/15 00:22:07;;;;;;;13.82;9.82;;;;;;;5.16;73.09;100843.78;692140;28;22276;-65
2020/12/15 00:22:28;;;;;;;12.57;9.57;;;;;;;5.18;73.31;100849.84;691617;28;46106;-65
2020/12/15 00:22:53;;;;;;;12.65;9.25;;;;;;;5.18;73.23;100847.16;693024;28;13429;-65
2020/12/15 00:23:14;;;;;;;13.05;9.10;;;;;;;5.17;73.17;100838.31;693112;28;10536;-65
2020/12/15 00:23:35;;;;;;;12.90;9.00;;;;;;;5.16;73.27;100841.94;693373;28;905;-65
2020/12/15 00:24:01;;;;;;;12.45;9.32;;;;;;;5.12;73.37;100832.50;691342;28;39127;-65
2020/12/15 00:24:23;;;;;;;13.10;9.38;;;;;;;5.16;73.33;100841.13;691646;28;38445;-65
2020/12/15 00:24:44;;;;;;;13.25;9.52;;;;;;;5.16;73.23;100836.59;692908;28;10047;-65
2020/12/15 00:25:06;;;;;;;13.25;9.30;;;;;;;5.16;73.11;100835.75;690931;28;45030;-65
2020/12/15 00:25:27;;;;;;;14.68;9.68;;;;;;;5.14;73.01;100840.38;692021;28;21548;-65
2020/12/15 00:25:48;;;;;;;13.30;9.25;;;;;;;5.15;73.18;100836.75;691645;28;44450;-65
2020/12/15 00:26:10;;;;;;;13.30;9.40;;;;;;;5.15;73.26;100845.59;691928;28;23499;-65
2020/12/15 00:26:31;;;;;;;12.55;9.43;;;;;;;5.15;73.23;100840.25;692453;28;21369;-65
2020/12/15 00:26:52;;;;;;;14.32;9.55;;;;;;;5.16;73.09;100846.47;691720;28;44328;-65
2020/12/15 00:27:13;;;;;;;12.30;8.95;;;;;;;5.16;73.07;100844.63;691559;28;22640;-65
2020/12/15 00:27:35;;;;;;;12.55;8.98;;;;;;;5.15;73.01;100845.59;692429;28;21494;-65
2020/12/15 00:27:57;;;;;;;14.25;9.70;;;;;;;5.15;73.19;100842.09;691718;28;44352;-65
2020/12/15 00:28:18;;;;;;;12.23;8.93;;;;;;;5.14;73.37;100837.72;692683;28;21353;-65
2020/12/15 00:28:40;;;;;;;12.80;9.18;;;;;;;5.15;72.94;100842.94;691890;28;44759;-65
2020/12/15 00:29:01;;;;;;;12.88;9.50;;;;;;;5.16;72.95;100846.47;692619;28;22400;-66
2020/12/15 00:29:22;;;;;;;13.57;9.65;;;;;;;5.16;72.91;100846.47;691902;28;45279;-67
2020/12/15 00:29:44;;;;;;;14.02;10.23;;;;;;;5.14;72.89;100846.59;692412;28;22382;-67
2020/12/15 00:30:05;;;;;;;14.73;9.80;;;;;;;5.12;73.03;100845.88;691500;28;45285;-67
2020/12/15 00:30:26;;;;;;;13.75;9.73;;;;;;;5.13;72.95;100844.91;692684;28;22426;-67
2020/12/15 00:30:47;;;;;;;14.38;10.02;;;;;;;5.13;72.78;100847.59;692780;28;21318;-67
2020/12/15 00:31:09;;;;;;;13.80;9.60;;;;;;;5.13;72.88;100849.44;693140;28;1197;-66
2020/12/15 00:31:35;;;;;;;12.45;9.48;;;;;;;5.11;73.05;100852.25;691947;28;44288;-64
2020/12/15 00:31:56;;;;;;;12.10;9.43;;;;;;;5.12;72.96;100850.41;689211;28;104937;-66
2020/12/15 00:32:18;;;;;;;12.90;9.65;;;;;;;5.12;72.74;100847.72;692801;28;23499;-66
2020/12/15 00:32:40;;;;;;;12.90;9.57;;;;;;;5.14;72.99;100854.63;691875;28;44400;-67
2020/12/15 00:33:01;;;;;;;12.95;9.85;;;;;;;5.14;73.04;100848.41;692826;28;16043;-66
2020/12/15 00:33:23;;;;;;;11.85;8.52;;;;;;;5.13;72.91;100838.72;691642;28;45253;-67
2020/12/15 00:33:44;;;;;;;12.10;8.77;;;;;;;5.13;73.05;100844.06;692415;28;21589;-66
2020/12/15 00:34:06;;;;;;;13.77;9.55;;;;;;;5.13;72.98;100847.59;691214;28;46277;-67
2020/12/15 00:34:27;;;;;;;13.93;9.55;;;;;;;5.12;72.81;100845.03;691879;28;46345;-66
2020/12/15 00:34:49;;;;;;;12.88;9.60;;;;;;;5.14;72.92;100848.41;692664;28;22424;-66
2020/12/15 00:35:10;;;;;;;12.60;9.40;;;;;;;5.14;72.84;100849.28;692057;28;20886;-67
2020/12/15 00:35:31;;;;;;;12.32;9.07;;;;;;;5.13;73.10;100846.75;691473;28;46432;-66
2020/12/15 00:35:54;;;;;;;12.75;8.90;;;;;;;5.12;72.72;100837.84;692322;28;23333;-66
2020/12/15 00:36:19;;;;;;;13.77;8.93;;;;;;;5.14;73.00;100843.94;691432;28;55691;-66
2020/12/15 00:36:40;;;;;;;13.80;9.23;;;;;;;5.14;72.82;100845.75;690213;28;92600;-67
2020/12/15 00:37:01;;;;;;;12.18;9.40;;;;;;;5.14;72.89;100843.06;691466;28;46415;-67
2020/12/15 00:37:23;;;;;;;12.32;9.57;;;;;;;5.13;72.88;100838.72;692576;28;15677;-66
2020/12/15 00:37:44;;;;;;;11.93;8.85;;;;;;;5.13;72.93;100841.41;691633;28;46341;-67
2020/12/15 00:38:05;;;;;;;13.18;9.45;;;;;;;5.12;72.95;100837.84;692629;28;21387;-67
2020/12/15 00:38:27;;;;;;;13.05;9.18;;;;;;;5.12;73.03;100837.00;692680;28;23467;-66
2020/12/15 00:38:48;;;;;;;11.98;9.02;;;;;;;5.09;73.09;100835.44;691807;28;46557;-67
2020/12/15 00:39:10;;;;;;;12.45;9.35;;;;;;;5.12;73.07;100837.84;692642;28;22410;-67
2020/12/15 00:39:31;;;;;;;13.50;9.25;;;;;;;5.13;73.18;100831.53;694372;28;43292;-66
2020/12/15 00:39:52;;;;;;;11.68;9.05;;;;;;;5.14;73.00;100837.72;695566;28;972;-66
2020/12/15 00:40:14;;;;;;;12.10;8.98;;;;;;;5.13;73.19;100825.31;694846;28;22111;-66
2020/12/15 00:40:35;;;;;;;11.30;9.00;;;;;;;5.14;73.33;100833.22;694056;28;47166;-66
2020/12/15 00:40:56;;;;;;;13.40;9.30;;;;;;;5.14;73.27;100838.56;695119;28;21575;-67
2020/12/15 00:41:18;;;;;;;13.68;9.68;;;;;;;5.13;73.18;100828.00;694645;28;22393;-66
2020/12/15 00:41:39;;;;;;;11.90;9.05;;;;;;;5.14;73.15;100833.22;691946;28;21656;-66
2020/12/15 00:42:01;;;;;;;11.63;9.18;;;;;;;5.14;73.12;100838.56;691037;28;46372;-66
2020/12/15 00:42:22;;;;;;;11.93;9.15;;;;;;;5.16;73.13;100836.59;691336;28;46302;-67
2020/12/15 00:42:43;;;;;;;12.13;9.23;;;;;;;5.13;72.98;100828.84;692424;28;23257;-66
2020/12/15 00:43:05;;;;;;;13.68;9.63;;;;;;;5.17;72.83;100837.44;692066;28;22414;-66
2020/12/15 00:43:26;;;;;;;13.18;9.35;;;;;;;5.17;72.93;100837.44;691386;28;44964;-67
2020/12/15 00:43:47;;;;;;;12.82;9.05;;;;;;;5.17;72.91;100840.97;692448;28;21560;-66
2020/12/15 00:44:09;;;;;;;11.90;9.10;;;;;;;5.17;72.96;100837.44;691651;28;21529;-66
2020/12/15 00:44:30;;;;;;;11.50;8.57;;;;;;;5.17;72.92;100838.31;693078;28;45120;-66
2020/12/15 00:44:52;;;;;;;16.08;9.50;;;;;;;5.14;73.01;100832.34;693683;28;21550;-67
2020/12/15 00:45:13;;;;;;;13.40;9.57;;;;;;;5.16;72.79;100844.63;692217;28;45893;-67
2020/12/15 00:45:34;;;;;;;12.23;9.40;;;;;;;5.15;72.86;100834.06;691303;28;22337;-67
2020/12/15 00:45:55;;;;;;;13.10;9.15;;;;;;;5.15;72.79;100836.75;690617;28;22437;-67
2020/12/15 00:46:18;;;;;;;12.93;9.57;;;;;;;5.15;72.84;100839.41;691232;28;8164;-66
2020/12/15 00:46:41;;;;;;;14.32;9.95;;;;;;;5.14;72.72;100835.03;687025;28;107363;-66
2020/12/15 00:47:03;;;;;;;14.60;9.73;;;;;;;5.15;72.84;100839.41;693160;28;21345;-67
2020/12/15 00:47:25;;;;;;;13.13;8.90;;;;;;;5.15;72.99;100836.75;692636;28;45268;-66
2020/12/15 00:47:47;;;;;;;11.88;8.88;;;;;;;5.14;72.79;100846.59;693075;28;46373;-67
2020/12/15 00:48:08;;;;;;;11.38;8.95;;;;;;;5.15;72.77;100847.44;691756;28;46337;-67
2020/12/15 00:48:30;;;;;;;13.05;9.30;;;;;;;5.14;72.79;100837.72;693243;28;22521;-66
2020/12/15 00:48:51;;;;;;;13.77;9.13;;;;;;;5.15;72.58;100842.09;692524;28;37091;-66
2020/12/15 00:49:13;;;;;;;12.02;8.73;;;;;;;5.14;72.71;100846.59;691380;28;16524;-67
2020/12/15 00:49:34;;;;;;;11.00;8.80;;;;;;;5.13;72.59;100839.56;687226;28;46641;-65
2020/12/15 00:49:55;;;;;;;11.52;8.93;;;;;;;5.15;72.84;100850.97;688428;28;22405;-66
2020/12/15 00:50:17;;;;;;;12.43;9.18;;;;;;;5.14;72.74;100843.06;688074;28;21343;-67
2020/12/15 00:50:38;;;;;;;12.32;9.05;;;;;;;5.16;72.74;100849.16;683223;28;44388;-66
2020/12/15 00:51:00;;;;;;;11.10;8.80;;;;;;;5.14;72.62;100851.97;681816;28;46411;-67
2020/12/15 00:51:22;;;;;;;11.73;9.27;;;;;;;5.13;72.72;100847.59;683004;28;21466;-66
2020/12/15 00:51:46;;;;;;;12.27;9.32;;;;;;;5.13;72.79;100850.25;683563;28;66429;-68
2020/12/15 00:52:08;;;;;;;13.27;9.43;;;;;;;5.13;72.85;100849.44;683098;28;69366;-66
2020/12/15 00:52:30;;;;;;;12.45;9.25;;;;;;;5.13;72.78;100844.91;685838;28;46508;-66
2020/12/15 00:52:51;;;;;;;12.85;8.90;;;;;;;5.13;72.62;100844.91;688261;28;27557;-67
2020/12/15 00:53:13;;;;;;;13.25;9.02;;;;;;;5.12;72.78;100853.91;688153;28;21599;-67
2020/12/15 00:53:34;;;;;;;13.23;9.10;;;;;;;5.12;72.80;100845.88;688785;28;46337;-65
2020/12/15 00:53:56;;;;;;;12.65;9.00;;;;;;;5.13;72.79;100850.25;687976;28;24352;-66
2020/12/15 00:54:18;;;;;;;13.45;9.30;;;;;;;5.14;73.00;100849.28;682767;28;89275;-66
2020/12/15 00:54:41;;;;;;;11.43;9.38;;;;;;;5.12;72.83;100851.22;681323;28;67515;-67
2020/12/15 00:55:02;;;;;;;11.20;9.35;;;;;;;5.13;72.74;100850.25;682357;28;21530;-68
2020/12/15 00:55:24;;;;;;;11.73;9.02;;;;;;;5.13;72.72;100846.75;682771;28;23397;-66
2020/12/15 00:55:46;;;;;;;11.10;8.50;;;;;;;5.11;72.86;100843.34;680413;28;42386;-67
2020/12/15 00:56:07;;;;;;;12.73;8.93;;;;;;;5.13;72.89;100852.94;681292;28;1163;-66
2020/12/15 00:56:29;;;;;;;11.18;8.73;;;;;;;5.13;72.76;100852.09;681014;28;23498;-66
2020/12/15 00:56:50;;;;;;;10.93;8.75;;;;;;;5.12;72.75;100848.56;682035;28;44602;-65
2020/12/15 00:57:13;;;;;;;11.30;8.85;;;;;;;5.07;72.67;100839.28;679249;29;45359;-66
2020/12/15 00:57:34;;;;;;;11.13;8.75;;;;;;;5.11;72.72;100846.03;679274;29;46758;-66
2020/12/15 00:57:56;;;;;;;11.00;9.00;;;;;;;5.12;72.95;100847.72;680992;28;21557;-65
2020/12/15 00:58:17;;;;;;;11.32;8.75;;;;;;;5.11;73.00;100849.56;683455;28;1049;-66
2020/12/15 00:58:39;;;;;;;13.30;9.10;;;;;;;5.10;72.86;100853.22;682233;28;45235;-66
2020/12/15 00:59:01;;;;;;;14.05;9.07;;;;;;;5.11;72.83;100840.66;682954;28;22438;-67
2020/12/15 00:59:23;;;;;;;12.00;8.57;;;;;;;5.11;72.99;100838.00;684730;28;46365;-66
2020/12/15 00:59:44;;;;;;;11.48;8.55;;;;;;;5.11;73.10;100846.03;683109;28;42099;-65
2020/12/15 01:00:07;;;;;;;12.38;9.02;;;;;;;5.10;72.99;100847.84;683211;28;45352;-64
2020/12/15 01:00:29;;;;;;;12.00;8.60;;;;;;;5.08;73.07;100835.59;679759;29;69457;-66
2020/12/15 01:00:51;;;;;;;12.38;8.75;;;;;;;5.10;73.21;100845.19;679207;29;21223;-65
2020/12/15 01:01:12;;;;;;;12.35;9.18;;;;;;;5.10;73.23;100839.81;678129;29;46380;-65
2020/12/15 01:01:35;;;;;;;11.57;8.90;;;;;;;5.11;73.25;100846.88;676746;29;44819;-67
2020/12/15 01:01:58;;;;;;;11.60;8.90;;;;;;;5.09;73.07;100838.13;678573;29;45136;-65
2020/12/15 01:02:19;;;;;;;10.38;8.48;;;;;;;5.12;72.99;100845.88;680920;28;69479;-66
2020/12/15 01:02:41;;;;;;;11.95;9.00;;;;;;;5.12;72.98;100837.84;681486;28;23444;-65
2020/12/15 01:03:03;;;;;;;11.18;9.13;;;;;;;5.11;72.95;100838.00;679949;28;69465;-65
2020/12/15 01:03:24;;;;;;;10.57;8.73;;;;;;;5.14;72.99;100837.72;681128;28;23254;-65
2020/12/15 01:03:46;;;;;;;12.02;8.88;;;;;;;5.13;73.15;100838.72;683676;28;24416;-65
2020/12/15 01:04:14;;;;;;;12.77;9.48;;;;;;;5.12;73.14;100839.69;681297;28;159109;-65
2020/12/15 01:04:36;;;;;;;12.73;9.13;;;;;;;5.11;73.07;100836.19;686777;28;69460;-65
2020/12/15 01:04:59;;;;;;;12.35;8.73;;;;;;;5.14;72.83;100843.06;684194;28;69485;-65
2020/12/15 01:05:21;;;;;;;12.88;8.98;;;;;;;5.14;73.16;100840.38;686574;28;45131;-67
2020/12/15 01:05:45;;;;;;;12.40;9.38;;;;;;;5.15;73.11;100837.56;683125;28;92071;-66
2020/12/15 01:06:09;;;;;;;12.85;9.38;;;;;;;5.16;73.13;100836.59;682206;28;45379;-66
2020/12/15 01:06:31;;;;;;;12.48;9.38;;;;;;;5.15;72.87;100834.06;682127;28;92327;-66
2020/12/15 01:06:53;;;;;;;13.25;9.00;;;;;;;5.14;73.02;100835.03;682410;28;22397;-65
2020/12/15 01:07:18;;;;;;;14.38;9.48;;;;;;;5.14;72.78;100827.00;678895;28;138227;-66
2020/12/15 01:07:39;;;;;;;13.18;8.85;;;;;;;5.15;72.88;100828.69;683224;28;46418;-66
2020/12/15 01:08:01;;;;;;;12.00;9.07;;;;;;;5.16;72.85;100831.25;684787;28;44989;-65
2020/12/15 01:08:22;;;;;;;11.52;8.82;;;;;;;5.12;72.92;100818.28;685232;28;22406;-65
2020/12/15 01:08:43;;;;;;;11.88;9.02;;;;;;;5.15;72.89;100821.50;686792;28;19921;-65
2020/12/15 01:09:05;;;;;;;10.38;8.85;;;;;;;5.14;73.21;100827.00;686863;28;45642;-66
2020/12/15 01:09:27;;;;;;;10.38;8.50;;;;;;;5.16;73.01;100827.72;683573;28;44011;-67
2020/12/15 01:09:48;;;;;;;12.10;8.85;;;;;;;5.15;72.88;100821.50;683896;28;22417;-66
2020/12/15 01:10:10;;;;;;;12.38;8.70;;;;;;;5.19;72.95;100819.41;681525;28;45256;-66
2020/12/15 01:10:36;;;;;;;12.45;8.90;;;;;;;5.17;73.17;100818.69;680512;28;138090;-67
2020/12/15 01:10:58;;;;;;;12.05;8.73;;;;;;;5.19;72.83;100819.41;684140;28;23500;-66
2020/12/15 01:11:20;;;;;;;12.02;9.18;;;;;;;5.17;72.96;100819.56;681995;28;46395;-67
2020/12/15 01:11:42;;;;;;;12.23;9.15;;;;;;;5.21;72.85;100825.47;680608;29;45801;-67
2020/12/15 01:12:10;;;;;;;11.77;8.70;;;;;;;5.16;72.78;100823.22;677452;28;161099;-66
2020/12/15 01:12:32;;;;;;;11.95;8.93;;;;;;;5.18;72.92;100831.09;682267;28;44513;-67
2020/12/15 01:12:54;;;;;;;12.63;8.98;;;;;;;5.19;72.74;100816.75;682597;28;44358;-67
2020/12/15 01:13:15;;;;;;;13.10;9.10;;;;;;;5.18;72.69;100823.06;686321;28;46360;-66
2020/12/15 01:13:36;;;;;;;13.57;9.27;;;;;;;5.17;72.57;100829.41;688128;28;22428;-67
2020/12/15 01:13:57;;;;;;;11.88;9.05;;;;;;;5.18;72.63;100828.44;687927;28;21321;-66
2020/12/15 01:14:21;;;;;;;13.07;9.18;;;;;;;5.19;72.47;100824.78;683917;28;69394;-66
2020/12/15 01:14:46;;;;;;;12.90;8.90;;;;;;;5.19;72.51;100825.59;681628;28;137656;-67
2020/12/15 01:15:10;;;;;;;11.10;8.55;;;;;;;5.19;72.37;100827.44;683735;28;92077;-66
2020/12/15 01:15:32;;;;;;;12.32;8.77;;;;;;;5.21;72.25;100830.81;683290;28;45215;-67
2020/12/15 01:15:55;;;;;;;12.70;8.77;;;;;;;5.21;72.43;100822.78;683080;28;46295;-66
2020/12/15 01:16:18;;;;;;;11.75;9.07;;;;;;;5.20;72.43;100830.00;679994;28;92614;-66
2020/12/15 01:16:45;;;;;;;12.55;9.15;;;;;;;5.19;72.42;100822.09;679364;28;138000;-66
2020/12/15 01:17:07;;;;;;;12.00;9.32;;;;;;;5.15;72.40;100816.16;680510;29;1156;-66
2020/12/15 01:17:28;;;;;;;12.88;9.32;;;;;;;5.19;72.47;100814.06;681128;28;46415;-67
2020/12/15 01:17:51;;;;;;;14.77;8.93;;;;;;;5.18;72.34;100826.59;681991;28;45288;-67
2020/12/15 01:18:18;;;;;;;13.00;8.90;;;;;;;5.17;72.46;100819.56;680834;28;137871;-67
2020/12/15 01:18:39;;;;;;;12.05;8.65;;;;;;;5.17;72.62;100816.88;685698;28;22275;-67
2020/12/15 01:19:06;;;;;;;10.95;8.60;;;;;;;5.19;72.73;100814.06;684413;28;136407;-67
2020/12/15 01:19:30;;;;;;;11.52;8.48;;;;;;;5.19;72.47;100822.94;683088;28;90680;-66
2020/12/15 01:19:52;;;;;;;11.77;8.77;;;;;;;5.20;72.52;100815.72;687322;28;46479;-67
2020/12/15 01:20:14;;;;;;;11.88;9.20;;;;;;;5.21;72.59;100817.44;688175;28;22561;-67
2020/12/15 01:20:39;;;;;;;13.68;9.35;;;;;;;5.18;72.63;100813.19;682889;28;115141;-66
2020/12/15 01:21:00;;;;;;;12.63;8.85;;;;;;;5.18;72.63;100815.03;683020;28;44235;-66
2020/12/15 01:21:25;;;;;;;11.98;9.13;;;;;;;5.18;72.48;100815.03;683393;28;44563;-66
2020/12/15 01:21:48;;;;;;;11.38;8.93;;;;;;;5.16;72.73;100815.19;678761;28;122776;-67
2020/12/15 01:22:14;;;;;;;12.55;8.55;;;;;;;5.18;72.74;100810.50;680705;28;137654;-67
2020/12/15 01:22:36;;;;;;;11.68;8.50;;;;;;;5.20;72.54;100810.38;679591;28;45479;-67
2020/12/15 01:23:02;;;;;;;10.95;8.50;;;;;;;5.18;72.66;100812.34;676247;29;160754;-66
2020/12/15 01:23:32;;;;;;;11.35;8.90;;;;;;;5.20;72.66;100818.41;674187;29;133983;-66
2020/12/15 01:23:58;;;;;;;11.75;8.82;;;;;;;5.20;72.46;100818.41;674584;29;114835;-67
2020/12/15 01:24:22;;;;;;;11.85;8.90;;;;;;;5.20;72.53;100815.72;677304;28;115100;-67
2020/12/15 01:25:06;;;;;;;13.45;9.18;;;;;;;5.18;72.68;100823.06;675727;28;136001;-67
2020/12/15 01:25:36;;;;;;;12.20;8.95;;;;;;;5.18;72.64;100807.00;688060;28;137947;-67
2020/12/15 01:26:00;;;;;;;12.20;8.80;;;;;;;5.17;72.72;100816.88;690735;28;67484;-66
2020/12/15 01:26:21;;;;;;;11.77;9.00;;;;;;;5.18;72.62;100815.88;689630;28;44388;-67
2020/12/15 01:26:44;;;;;;;12.48;8.80;;;;;;;5.19;72.60;100816.75;690287;28;23279;-66
2020/12/15 01:27:05;;;;;;;10.63;7.93;;;;;;;5.19;72.56;100816.75;685635;28;90160;-67
2020/12/15 01:27:36;;;;;;;11.98;8.70;;;;;;;5.17;72.69;100810.66;679327;28;137919;-67
2020/12/15 01:28:06;;;;;;;13.88;9.05;;;;;;;5.18;72.73;100812.34;681046;28;137858;-67
2020/12/15 01:28:27;;;;;;;12.68;8.93;;;;;;;5.16;72.71;100806.31;685138;28;21526;-66
2020/12/15 01:28:49;;;;;;;12.07;9.10;;;;;;;5.16;72.80;100815.19;681421;29;23506;-67
2020/12/15 01:29:10;;;;;;;11.20;8.85;;;;;;;5.16;72.56;100809.81;683352;28;44390;-67
2020/12/15 01:29:31;;;;;;;11.40;8.70;;;;;;;5.17;72.60;100819.56;684252;28;23497;-66
2020/12/15 01:29:53;;;;;;;11.57;8.48;;;;;;;5.17;72.43;100813.34;681986;28;46447;-66
2020/12/15 01:30:19;;;;;;;11.70;8.95;;;;;;;5.20;72.51;100813.91;678742;28;139090;-67
2020/12/15 01:31:00;;;;;;;11.35;9.15;;;;;;;5.18;72.61;100812.34;682411;28;137567;-66
2020/12/15 01:31:24;;;;;;;11.43;8.65;;;;;;;5.18;72.55;100815.03;685534;28;89865;-66
2020/12/15 01:31:54;;;;;;;12.55;9.00;;;;;;;5.13;72.63;100807.44;687766;28;138048;-67
2020/12/15 01:32:19;;;;;;;12.00;8.57;;;;;;;5.14;72.72;100805.59;685759;28;114556;-66
2020/12/15 01:32:41;;;;;;;10.60;8.45;;;;;;;5.15;72.62;100818.81;688519;28;39632;-66
2020/12/15 01:33:03;;;;;;;10.93;8.43;;;;;;;5.16;72.57;100815.19;689572;28;13569;-66
2020/12/15 01:33:48;;;;;;;12.55;9.07;;;;;;;5.16;72.54;100817.84;683151;28;138393;-65
2020/12/15 01:34:15;;;;;;;13.10;8.85;;;;;;;5.17;72.37;100819.56;683989;28;138053;-66
2020/12/15 01:34:58;;;;;;;11.35;8.98;;;;;;;5.14;72.48;100814.47;683581;28;105108;-67
2020/12/15 01:35:21;;;;;;;11.43;8.85;;;;;;;5.18;72.40;100818.56;683766;28;21161;-66
2020/12/15 01:35:44;;;;;;;11.35;8.35;;;;;;;5.17;72.40;100816.88;682118;28;68973;-65
2020/12/15 01:36:05;;;;;;;11.20;8.57;;;;;;;5.17;72.37;100827.59;681552;28;18605;-67
2020/12/15 01:36:39;;;;;;;10.20;8.35;;;;;;;5.18;72.44;100815.03;679146;28;126911;-66
2020/12/15 01:37:04;;;;;;;12.00;8.85;;;;;;;5.19;72.37;100822.09;683255;28;87118;-65
2020/12/15 01:37:25;;;;;;;13.05;9.07;;;;;;;5.19;72.37;100819.41;685917;28;46384;-67
2020/12/15 01:37:48;;;;;;;12.77;8.93;;;;;;;5.18;72.37;100807.00;682629;28;68094;-67
2020/12/15 01:38:16;;;;;;;11.57;8.55;;;;;;;5.19;72.40;100814.06;684322;28;138061;-66
2020/12/15 01:38:38;;;;;;;11.73;8.68;;;;;;;5.19;72.38;100812.22;685623;28;45638;-66
2020/12/15 01:39:01;;;;;;;11.02;8.43;;;;;;;5.20;72.42;100815.72;682176;28;69483;-67
2020/12/15 01:39:32;;;;;;;10.93;8.70;;;;;;;5.20;72.37;100810.38;678100;28;137459;-67
2020/12/15 01:40:01;;;;;;;12.40;8.82;;;;;;;5.18;72.51;100807.84;677162;29;136378;-67
2020/12/15 01:40:26;;;;;;;12.15;8.85;;;;;;;5.19;72.69;100806.88;678366;28;138133;-67
2020/12/15 01:40:48;;;;;;;12.93;9.05;;;;;;;5.20;72.49;100805.03;681432;28;23453;-66
2020/12/15 01:41:11;;;;;;;12.65;9.05;;;;;;;5.20;72.63;100805.03;681988;28;69379;-66
2020/12/15 01:41:39;;;;;;;11.00;8.65;;;;;;;5.19;72.73;100811.38;683048;28;59818;-67
2020/12/15 01:42:01;;;;;;;12.02;8.90;;;;;;;5.19;72.75;100806.03;681927;28;69417;-66
2020/12/15 01:42:23;;;;;;;13.02;9.13;;;;;;;5.20;72.80;100807.69;682427;28;21515;-65
2020/12/15 01:42:49;;;;;;;13.10;9.40;;;;;;;5.22;72.72;100811.09;681129;28;137681;-65
2020/12/15 01:43:11;;;;;;;12.82;9.05;;;;;;;5.24;72.62;100806.44;683472;28;22460;-66
2020/12/15 01:43:34;;;;;;;12.40;8.65;;;;;;;5.23;72.53;100805.59;685743;28;46340;-66
2020/12/15 01:43:56;;;;;;;11.95;8.90;;;;;;;5.21;72.64;100804.88;687526;28;37976;-66
2020/12/15 01:44:20;;;;;;;12.48;8.73;;;;;;;5.17;72.66;100800.81;686858;28;115749;-66
2020/12/15 01:44:43;;;;;;;11.93;8.65;;;;;;;5.20;72.34;100797.84;686026;28;69448;-65
2020/12/15 01:45:05;;;;;;;10.65;8.50;;;;;;;5.20;72.38;100803.22;688458;28;1625;-67
2020/12/15 01:45:28;;;;;;;11.38;8.32;;;;;;;5.17;72.43;100806.16;683602;28;93178;-66
2020/12/15 01:45:50;;;;;;;12.45;8.38;;;;;;;5.18;72.55;100798.97;681929;28;45242;-66
2020/12/15 01:46:12;;;;;;;12.38;8.35;;;;;;;5.17;72.66;100800.81;682870;28;21332;-66
2020/12/15 01:46:34;;;;;;;11.48;8.65;;;;;;;5.17;72.52;100800.81;682728;28;22391;-66